sensor_id;sensor_type;location;lat;lon;timestamp;temperature;humidity
3998;DHT22;61314;53.444;9.902;2022-08-21T00:01:38;14.30;99.90
3998;DHT22;61314;53.444;9.902;2022-08-21T00:06:36;14.30;99.90
3998;DHT22;61314;53.444;9.902;2022-08-21T00:09:05;14.40;99.90
3998;DHT22;61314;53.444;9.902;2022-08-21T00:11:34;14.20;99.90
3998;DHT22;61314;53.444;9.902;2022-08-21T00:14:02;14.20;99.90
3998;DHT22;61314;53.444;9.902;2022-08-21T00:31:16;14.10;99.90
3998;DHT22;61314;53.444;9.902;2022-08-21T00:33:43;14.10;99.90
3998;DHT22;61314;53.444;9.902;2022-08-21T00:36:10;14.10;99.90
3998;DHT22;61314;53.444;9.902;2022-08-21T00:38:37;14.00;99.90
3998;DHT22;61314;53.444;9.902;2022-08-21T00:41:06;14.00;99.90
3998;DHT22;61314;53.444;9.902;2022-08-21T00:54:07;13.90;99.90
3998;DHT22;61314;53.444;9.902;2022-08-21T00:56:44;13.90;99.90
3998;DHT22;61314;53.444;9.902;2022-08-21T07:15:48;18.50;99.90
3998;DHT22;61314;53.444;9.902;2022-08-21T09:26:16;25.60;99.90
3998;DHT22;61314;53.444;9.902;2022-08-21T09:31:26;25.90;99.90
3998;DHT22;61314;53.444;9.902;2022-08-21T09:42:02;26.60;99.90
3998;DHT22;61314;53.444;9.902;2022-08-21T11:11:15;28.20;91.70
3998;DHT22;61314;53.444;9.902;2022-08-21T11:14:10;27.90;87.70
3998;DHT22;61314;53.444;9.902;2022-08-21T11:16:46;27.80;89.30
3998;DHT22;61314;53.444;9.902;2022-08-21T11:34:39;27.70;88.90
3998;DHT22;61314;53.444;9.902;2022-08-21T12:38:07;27.10;89.10
3998;DHT22;61314;53.444;9.902;2022-08-21T12:41:04;27.90;88.40
3998;DHT22;61314;53.444;9.902;2022-08-21T12:43:42;28.00;87.10
3998;DHT22;61314;53.444;9.902;2022-08-21T12:46:19;28.20;91.70
3998;DHT22;61314;53.444;9.902;2022-08-21T12:48:52;28.10;91.80
3998;DHT22;61314;53.444;9.902;2022-08-21T12:51:27;27.90;91.30
3998;DHT22;61314;53.444;9.902;2022-08-21T12:53:58;27.70;90.70
3998;DHT22;61314;53.444;9.902;2022-08-21T12:58:55;27.70;89.80
3998;DHT22;61314;53.444;9.902;2022-08-21T13:01:25;27.40;91.10
3998;DHT22;61314;53.444;9.902;2022-08-21T13:03:57;27.60;92.70
3998;DHT22;61314;53.444;9.902;2022-08-21T13:06:36;27.60;91.00
3998;DHT22;61314;53.444;9.902;2022-08-21T13:09:06;27.70;91.40
3998;DHT22;61314;53.444;9.902;2022-08-21T13:11:33;27.90;92.40
3998;DHT22;61314;53.444;9.902;2022-08-21T13:14:02;27.90;91.20
3998;DHT22;61314;53.444;9.902;2022-08-21T13:16:32;28.00;91.30
3998;DHT22;61314;53.444;9.902;2022-08-21T13:19:06;28.00;92.30
3998;DHT22;61314;53.444;9.902;2022-08-21T13:21:39;27.90;91.20
3998;DHT22;61314;53.444;9.902;2022-08-21T13:24:15;27.90;91.40
3998;DHT22;61314;53.444;9.902;2022-08-21T13:27:03;28.00;91.30
3998;DHT22;61314;53.444;9.902;2022-08-21T13:29:32;28.00;91.20
3998;DHT22;61314;53.444;9.902;2022-08-21T13:32:05;27.90;91.70
3998;DHT22;61314;53.444;9.902;2022-08-21T13:34:36;27.90;90.80
3998;DHT22;61314;53.444;9.902;2022-08-21T13:37:07;27.90;90.30
3998;DHT22;61314;53.444;9.902;2022-08-21T13:39:34;28.00;91.30
3998;DHT22;61314;53.444;9.902;2022-08-21T13:42:08;28.00;90.40
3998;DHT22;61314;53.444;9.902;2022-08-21T13:44:45;28.00;90.90
3998;DHT22;61314;53.444;9.902;2022-08-21T13:47:15;27.90;91.30
3998;DHT22;61314;53.444;9.902;2022-08-21T13:49:51;27.90;91.50
3998;DHT22;61314;53.444;9.902;2022-08-21T13:52:26;27.80;91.80
3998;DHT22;61314;53.444;9.902;2022-08-21T13:57:30;27.70;91.30
3998;DHT22;61314;53.444;9.902;2022-08-21T14:00:33;27.50;91.50
3998;DHT22;61314;53.444;9.902;2022-08-21T14:03:11;27.40;91.80
3998;DHT22;61314;53.444;9.902;2022-08-21T14:05:49;27.40;92.30
3998;DHT22;61314;53.444;9.902;2022-08-21T14:08:37;27.30;92.30
3998;DHT22;61314;53.444;9.902;2022-08-21T14:11:11;27.30;92.30
3998;DHT22;61314;53.444;9.902;2022-08-21T14:24:05;27.20;91.90
3998;DHT22;61314;53.444;9.902;2022-08-21T14:26:34;26.60;85.10
3998;DHT22;61314;53.444;9.902;2022-08-21T14:29:08;26.40;87.10
3998;DHT22;61314;53.444;9.902;2022-08-21T14:39:18;26.30;86.80
3998;DHT22;61314;53.444;9.902;2022-08-21T15:21:36;25.60;88.30
3998;DHT22;61314;53.444;9.902;2022-08-21T16:15:57;23.90;92.70
3998;DHT22;61314;53.444;9.902;2022-08-21T16:18:26;23.80;92.90
3998;DHT22;61314;53.444;9.902;2022-08-21T16:20:53;23.90;93.30
3998;DHT22;61314;53.444;9.902;2022-08-21T16:23:19;23.90;93.50
3998;DHT22;61314;53.444;9.902;2022-08-21T16:25:46;23.90;93.50
3998;DHT22;61314;53.444;9.902;2022-08-21T16:28:15;24.00;94.20
3998;DHT22;61314;53.444;9.902;2022-08-21T16:30:45;23.90;94.10
3998;DHT22;61314;53.444;9.902;2022-08-21T16:33:35;23.90;94.20
3998;DHT22;61314;53.444;9.902;2022-08-21T16:36:04;23.90;94.30
3998;DHT22;61314;53.444;9.902;2022-08-21T16:38:31;23.80;94.20
3998;DHT22;61314;53.444;9.902;2022-08-21T17:42:43;22.40;98.00
3998;DHT22;61314;53.444;9.902;2022-08-21T17:45:14;22.30;99.10
3998;DHT22;61314;53.444;9.902;2022-08-21T18:49:54;20.80;99.90
3998;DHT22;61314;53.444;9.902;2022-08-21T18:52:20;20.40;99.90
3998;DHT22;61314;53.444;9.902;2022-08-21T18:54:47;20.40;99.90
3998;DHT22;61314;53.444;9.902;2022-08-21T19:00:08;20.30;99.90
3998;DHT22;61314;53.444;9.902;2022-08-21T19:02:38;20.30;99.90
3998;DHT22;61314;53.444;9.902;2022-08-21T19:10:07;20.10;99.90
3998;DHT22;61314;53.444;9.902;2022-08-21T19:12:59;20.20;99.90
3998;DHT22;61314;53.444;9.902;2022-08-21T19:15:27;20.00;99.90
3998;DHT22;61314;53.444;9.902;2022-08-21T19:17:55;19.90;99.90
3998;DHT22;61314;53.444;9.902;2022-08-21T19:57:55;19.20;99.90
3998;DHT22;61314;53.444;9.902;2022-08-21T20:00:22;19.20;99.90
3998;DHT22;61314;53.444;9.902;2022-08-21T20:05:16;19.20;99.90
3998;DHT22;61314;53.444;9.902;2022-08-21T20:12:39;19.10;99.90
3998;DHT22;61314;53.444;9.902;2022-08-21T20:15:07;18.90;99.90
3998;DHT22;61314;53.444;9.902;2022-08-21T20:20:04;18.90;99.90
3998;DHT22;61314;53.444;9.902;2022-08-21T20:22:31;18.70;99.90
3998;DHT22;61314;53.444;9.902;2022-08-21T20:24:57;18.80;99.90
3998;DHT22;61314;53.444;9.902;2022-08-21T20:27:25;18.80;99.90
3998;DHT22;61314;53.444;9.902;2022-08-21T20:29:53;18.70;99.90
3998;DHT22;61314;53.444;9.902;2022-08-21T20:32:20;18.80;99.90
3998;DHT22;61314;53.444;9.902;2022-08-21T20:35:07;18.70;99.90
3998;DHT22;61314;53.444;9.902;2022-08-21T20:37:39;18.70;99.90
3998;DHT22;61314;53.444;9.902;2022-08-21T20:40:07;18.60;99.90
3998;DHT22;61314;53.444;9.902;2022-08-21T20:42:37;18.60;99.90
3998;DHT22;61314;53.444;9.902;2022-08-21T20:45:05;18.50;99.90
3998;DHT22;61314;53.444;9.902;2022-08-21T20:47:35;18.50;99.90
3998;DHT22;61314;53.444;9.902;2022-08-21T20:50:06;18.50;99.90
3998;DHT22;61314;53.444;9.902;2022-08-21T21:31:11;18.00;99.90
3998;DHT22;61314;53.444;9.902;2022-08-21T21:33:39;18.20;99.90
3998;DHT22;61314;53.444;9.902;2022-08-21T21:36:27;18.10;99.90
3998;DHT22;61314;53.444;9.902;2022-08-21T21:39:09;17.90;99.90
3998;DHT22;61314;53.444;9.902;2022-08-21T23:09:08;17.90;99.90
3998;DHT22;61314;53.444;9.902;2022-08-21T23:11:43;17.70;99.90
3998;DHT22;61314;53.444;9.902;2022-08-21T23:14:16;17.70;99.90
3998;DHT22;61314;53.444;9.902;2022-08-21T23:30:07;17.50;99.90
3998;DHT22;61314;53.444;9.902;2022-08-21T23:35:27;17.40;99.90
3998;DHT22;61314;53.444;9.902;2022-08-21T23:38:47;17.50;99.90
3998;DHT22;61314;53.444;9.902;2022-08-21T23:41:42;17.50;99.90
3998;DHT22;61314;53.444;9.902;2022-08-21T23:44:23;17.50;99.90
3998;DHT22;61314;53.444;9.902;2022-08-21T23:49:49;17.40;99.90
3998;DHT22;61314;53.444;9.902;2022-08-21T23:56:10;17.30;99.90
